Time;durP1;ratioP1;P1;durP2;ratioP2;P2;SDS_P1;SDS_P2;PMS_P1;PMS_P2;Temp;Humidity;BMP_temperature;BMP_pressure;BME280_temperature;BME280_humidity;BME280_pressure;Samples;Min_cycle;Max_cycle;Signal;HPM_P1;HPM_P2
2023/12/14 00:01:14;;;;;;;5.25;2.90;;;;;;;24.98;36.43;98403.94;4988135;28;20026;-44
2023/12/14 00:03:46;;;;;;;5.38;2.90;;;;;;;24.97;36.52;98411.50;4993019;28;20031;-43
2023/12/14 00:06:11;;;;;;;5.20;2.97;;;;;;;24.95;36.51;98414.03;4993257;28;20022;-43
2023/12/14 00:08:37;;;;;;;4.93;2.90;;;;;;;24.96;36.73;98420.28;4992916;28;20018;-45
2023/12/14 00:11:09;;;;;;;4.82;2.75;;;;;;;24.94;36.66;98417.28;4986005;28;20029;-44
2023/12/14 00:13:34;;;;;;;4.97;2.70;;;;;;;24.91;36.66;98416.31;4989769;28;20044;-43
2023/12/14 00:16:00;;;;;;;5.47;2.90;;;;;;;24.94;36.64;98423.56;4988503;28;20029;-46
2023/12/14 00:18:25;;;;;;;4.80;2.60;;;;;;;24.96;36.50;98428.56;4997083;28;20026;-44
2023/12/14 00:20:51;;;;;;;5.10;2.70;;;;;;;24.96;36.75;98429.31;4994943;28;20032;-44
2023/12/14 00:23:16;;;;;;;5.00;2.70;;;;;;;24.94;36.48;98434.59;4984563;28;20026;-43
2023/12/14 00:25:42;;;;;;;4.93;2.40;;;;;;;24.92;36.69;98439.13;4989779;28;20034;-43
2023/12/14 00:28:07;;;;;;;4.88;2.45;;;;;;;24.92;36.54;98448.16;4988621;28;20034;-43
2023/12/14 00:30:32;;;;;;;5.80;2.70;;;;;;;24.92;36.66;98445.41;4996427;28;20034;-43
2023/12/14 00:32:58;;;;;;;4.50;2.30;;;;;;;24.92;36.55;98450.91;4988991;28;20033;-43
2023/12/14 00:35:23;;;;;;;4.78;2.50;;;;;;;24.90;36.65;98450.69;4991434;28;20475;-45
2023/12/14 00:37:48;;;;;;;5.38;2.33;;;;;;;24.88;36.60;98453.22;4992011;28;20072;-46
2023/12/14 00:40:14;;;;;;;4.80;2.42;;;;;;;24.88;36.53;98458.75;4991810;28;20030;-45
2023/12/14 00:42:39;;;;;;;4.43;2.10;;;;;;;24.91;36.61;98462.47;4991809;28;20040;-45
2023/12/14 00:45:05;;;;;;;5.15;2.53;;;;;;;24.90;36.51;98460.97;4995378;28;20525;-43
2023/12/14 00:47:30;;;;;;;4.60;2.35;;;;;;;24.88;36.66;98469.78;4987734;28;20172;-43
2023/12/14 00:49:55;;;;;;;4.57;2.20;;;;;;;24.89;36.73;98476.06;4986436;28;20126;-44
2023/12/14 00:52:21;;;;;;;4.10;2.00;;;;;;;24.87;36.54;98473.81;4996608;28;20017;-43
2023/12/14 00:54:46;;;;;;;4.30;2.10;;;;;;;24.87;36.76;98475.81;4996716;28;20029;-43
2023/12/14 00:57:11;;;;;;;4.43;2.10;;;;;;;24.86;36.67;98477.09;4990890;28;20049;-46
2023/12/14 00:59:37;;;;;;;4.35;2.05;;;;;;;24.85;36.78;98481.84;4995460;28;20042;-43
2023/12/14 01:02:02;;;;;;;4.60;2.22;;;;;;;24.85;36.76;98478.34;4987954;28;20034;-43
2023/12/14 01:04:27;;;;;;;4.38;2.10;;;;;;;24.86;36.63;98485.38;4992161;28;20056;-44
2023/12/14 01:06:53;;;;;;;4.10;2.10;;;;;;;24.86;36.68;98493.66;4991994;28;20034;-43
2023/12/14 01:09:18;;;;;;;4.53;2.10;;;;;;;24.89;36.54;98487.09;4987072;28;20676;-44
2023/12/14 01:11:43;;;;;;;4.28;2.13;;;;;;;24.88;36.73;98491.13;4982852;28;20022;-44
2023/12/14 01:14:09;;;;;;;4.45;2.00;;;;;;;24.87;36.58;98503.41;4985109;28;20041;-45
2023/12/14 01:16:34;;;;;;;4.25;2.20;;;;;;;24.87;36.63;98508.94;5000782;28;20032;-45
2023/12/14 01:18:59;;;;;;;4.30;2.03;;;;;;;24.86;36.55;98508.19;4986795;28;20100;-43
2023/12/14 01:21:25;;;;;;;4.20;2.00;;;;;;;24.86;36.71;98513.72;4986373;28;20026;-46
2023/12/14 01:23:51;;;;;;;4.40;2.00;;;;;;;24.83;36.59;98522.28;4981393;28;20401;-46
2023/12/14 01:26:18;;;;;;;4.03;1.98;;;;;;;24.84;36.62;98521.75;4982657;28;20031;-45
2023/12/14 01:28:43;;;;;;;4.40;2.00;;;;;;;24.84;36.70;98519.00;4986536;28;20144;-43
2023/12/14 01:31:09;;;;;;;4.10;2.00;;;;;;;24.84;36.58;98527.28;4992088;28;20487;-45
2023/12/14 01:33:34;;;;;;;3.92;1.83;;;;;;;24.85;36.64;98526.03;4990230;28;20033;-43
2023/12/14 01:35:59;;;;;;;3.88;1.65;;;;;;;24.86;36.62;98535.03;4984178;28;20038;-43
2023/12/14 01:38:25;;;;;;;3.72;1.80;;;;;;;24.84;36.74;98530.03;4982529;28;20033;-49
2023/12/14 01:40:50;;;;;;;3.20;1.50;;;;;;;24.81;36.70;98536.59;4989229;28;20042;-47
2023/12/14 01:43:15;;;;;;;4.13;1.75;;;;;;;24.82;36.78;98543.63;4986731;28;20022;-44
2023/12/14 01:45:41;;;;;;;4.22;1.83;;;;;;;24.79;36.72;98544.66;4991340;28;20079;-43
2023/12/14 01:48:06;;;;;;;3.92;1.85;;;;;;;24.79;36.68;98547.41;4989272;28;20022;-43
2023/12/14 01:50:32;;;;;;;3.90;1.70;;;;;;;24.76;36.66;98553.97;4985425;28;20408;-43
2023/12/14 01:52:57;;;;;;;3.80;1.77;;;;;;;24.76;36.91;98562.25;4985440;28;20028;-43
2023/12/14 01:55:22;;;;;;;3.97;1.80;;;;;;;24.77;37.17;98563.00;4985810;28;20139;-43
2023/12/14 01:57:48;;;;;;;3.83;1.65;;;;;;;24.77;36.84;98569.28;4994154;28;20030;-46
2023/12/14 02:00:19;;;;;;;3.22;1.60;;;;;;;24.76;36.73;98570.53;4986624;28;20444;-46
2023/12/14 02:02:44;;;;;;;3.95;1.88;;;;;;;24.77;36.75;98574.03;4982517;28;20341;-43
2023/12/14 02:05:10;;;;;;;3.17;1.50;;;;;;;24.76;36.68;98578.06;4988091;28;20041;-46
2023/12/14 02:07:35;;;;;;;3.75;1.67;;;;;;;24.77;36.75;98585.84;4991279;28;20026;-43
2023/12/14 02:10:00;;;;;;;3.38;1.50;;;;;;;24.80;36.78;98590.28;4995918;28;20100;-43
2023/12/14 02:12:26;;;;;;;3.72;1.60;;;;;;;24.79;36.77;98593.56;4989506;28;20759;-43
2023/12/14 02:14:51;;;;;;;3.28;1.58;;;;;;;24.80;36.82;98590.28;4986974;28;20040;-43
2023/12/14 02:17:16;;;;;;;3.22;1.48;;;;;;;24.81;36.73;98597.31;4988846;28;20100;-43
2023/12/14 02:19:42;;;;;;;3.10;1.52;;;;;;;24.83;36.59;98600.31;4990721;28;20033;-43
2023/12/14 02:22:07;;;;;;;3.10;1.45;;;;;;;24.84;36.59;98596.28;4996371;28;20034;-45
2023/12/14 02:24:32;;;;;;;3.03;1.40;;;;;;;24.85;36.65;98603.28;4993192;28;20579;-43
2023/12/14 02:26:58;;;;;;;3.30;1.40;;;;;;;24.84;36.49;98596.28;4992220;28;20047;-46
2023/12/14 02:29:23;;;;;;;2.85;1.45;;;;;;;24.83;36.62;98600.31;4994472;28;20032;-45
2023/12/14 02:31:49;;;;;;;3.53;1.50;;;;;;;24.80;36.65;98606.84;4993757;28;20030;-46
2023/12/14 02:34:14;;;;;;;3.10;1.42;;;;;;;24.80;36.77;98609.63;4990768;28;20495;-46
2023/12/14 02:36:40;;;;;;;2.90;1.30;;;;;;;24.77;36.72;98607.91;4994153;28;20019;-45
2023/12/14 02:39:05;;;;;;;3.33;1.48;;;;;;;24.79;36.74;98616.41;4991477;28;20361;-45
2023/12/14 02:41:30;;;;;;;2.97;1.40;;;;;;;24.81;36.82;98613.13;4991842;28;20088;-44
2023/12/14 02:43:56;;;;;;;2.92;1.30;;;;;;;24.80;36.63;98617.91;4991657;28;20028;-46
2023/12/14 02:46:21;;;;;;;3.30;1.40;;;;;;;24.77;36.73;98618.94;4997135;28;20049;-44
2023/12/14 02:48:47;;;;;;;3.05;1.30;;;;;;;24.76;36.80;98622.97;4991980;28;20608;-47
2023/12/14 02:51:13;;;;;;;3.00;1.42;;;;;;;24.73;36.77;98635.78;4992599;28;20030;-46
2023/12/14 02:53:39;;;;;;;2.87;1.30;;;;;;;24.75;36.75;98632.50;4990891;28;20026;-46
2023/12/14 02:56:04;;;;;;;3.05;1.40;;;;;;;24.79;36.55;98632.97;4991563;28;20022;-44
2023/12/14 02:58:30;;;;;;;3.65;1.52;;;;;;;24.73;36.70;98635.03;4987602;28;20030;-43
2023/12/14 03:00:55;;;;;;;3.15;1.23;;;;;;;24.74;36.79;98642.06;4994160;28;20034;-43
2023/12/14 03:03:20;;;;;;;3.03;1.35;;;;;;;24.75;36.79;98637.28;4988924;28;20030;-44
2023/12/14 03:05:46;;;;;;;2.50;1.20;;;;;;;24.75;36.73;98643.56;4990715;28;20100;-46
2023/12/14 03:08:11;;;;;;;3.00;1.30;;;;;;;24.77;36.66;98645.81;4989784;28;20035;-46
2023/12/14 03:10:37;;;;;;;2.65;1.30;;;;;;;24.76;36.82;98650.56;4996008;28;20018;-44
2023/12/14 03:13:02;;;;;;;2.40;1.13;;;;;;;24.77;36.65;98649.31;4996030;28;20026;-44
2023/12/14 03:15:27;;;;;;;2.55;1.20;;;;;;;24.79;36.74;98655.03;4992134;28;20031;-45
2023/12/14 03:17:53;;;;;;;2.45;1.15;;;;;;;24.81;36.58;98663.53;4989562;28;20037;-44
2023/12/14 03:20:18;;;;;;;3.42;1.20;;;;;;;24.80;36.77;98662.06;4995736;28;20030;-47
2023/12/14 03:22:43;;;;;;;2.85;1.30;;;;;;;24.80;36.73;98662.06;4995235;28;20076;-44
2023/12/14 03:25:09;;;;;;;2.30;1.13;;;;;;;24.81;36.57;98663.53;4996298;28;20508;-44
2023/12/14 03:27:35;;;;;;;2.58;1.17;;;;;;;24.79;36.67;98674.34;4996944;28;20033;-45
2023/12/14 03:30:00;;;;;;;2.88;1.23;;;;;;;24.76;36.53;98678.16;4996470;28;20026;-43
2023/12/14 03:32:26;;;;;;;3.33;1.30;;;;;;;24.78;36.58;98674.91;4994259;28;20029;-43
2023/12/14 03:34:51;;;;;;;2.72;1.30;;;;;;;24.80;36.68;98684.13;4995695;28;20392;-44
2023/12/14 03:37:16;;;;;;;2.33;1.08;;;;;;;24.80;36.52;98688.91;4995275;28;20083;-43
2023/12/14 03:39:42;;;;;;;3.22;1.30;;;;;;;24.77;36.65;98689.97;4989347;28;20110;-44
2023/12/14 03:42:07;;;;;;;2.83;1.20;;;;;;;24.77;36.52;98692.72;4989133;28;20033;-44
2023/12/14 03:44:32;;;;;;;2.35;1.10;;;;;;;24.78;36.55;98703.22;4990616;28;20034;-43
2023/12/14 03:46:59;;;;;;;3.47;1.40;;;;;;;24.79;36.58;98710.22;4990661;28;20042;-43
2023/12/14 03:49:25;;;;;;;2.20;1.10;;;;;;;24.80;36.55;98708.97;4988323;28;20028;-46
2023/12/14 03:51:50;;;;;;;1.67;1.00;;;;;;;24.83;36.39;98712.72;4979842;28;20026;-43
2023/12/14 03:54:15;;;;;;;2.20;1.10;;;;;;;24.82;36.46;98711.97;4985875;28;20092;-44
2023/12/14 03:56:41;;;;;;;2.20;1.15;;;;;;;24.81;36.50;98720.75;4986106;28;20018;-44
2023/12/14 03:59:07;;;;;;;2.05;1.00;;;;;;;24.76;36.50;98727.84;4992465;28;20030;-45
2023/12/14 04:01:33;;;;;;;2.05;1.00;;;;;;;24.76;36.87;98727.84;4994631;28;20030;-43
2023/12/14 04:03:58;;;;;;;2.30;1.20;;;;;;;24.77;36.67;98737.63;4991119;28;20049;-46
2023/12/14 04:06:24;;;;;;;1.75;0.90;;;;;;;24.75;36.73;98742.16;4986878;28;20424;-44
2023/12/14 04:08:49;;;;;;;2.00;1.10;;;;;;;24.73;36.61;98745.41;4991642;28;20096;-43
2023/12/14 04:11:14;;;;;;;2.05;1.00;;;;;;;24.77;36.57;98739.63;4989354;28;20482;-43
2023/12/14 04:13:40;;;;;;;1.70;1.00;;;;;;;24.77;36.75;98750.66;4995766;28;20481;-45
2023/12/14 04:16:06;;;;;;;2.33;1.10;;;;;;;24.75;36.75;98764.22;4992532;28;20026;-43
2023/12/14 04:18:31;;;;;;;2.75;1.17;;;;;;;24.77;36.60;98759.69;4988075;28;20030;-43
2023/12/14 04:20:56;;;;;;;2.22;1.10;;;;;;;24.75;36.57;98767.75;4985654;28;20057;-46
2023/12/14 04:23:22;;;;;;;2.38;1.00;;;;;;;24.75;36.60;98776.03;4987387;28;20036;-45
2023/12/14 04:25:47;;;;;;;2.30;1.10;;;;;;;24.75;36.56;98770.50;4997281;28;20564;-43
2023/12/14 04:28:12;;;;;;;2.17;1.00;;;;;;;24.78;36.68;98769.44;4992761;28;20026;-43
2023/12/14 04:30:38;;;;;;;1.98;0.95;;;;;;;24.79;36.51;98776.47;4987599;28;20393;-43
2023/12/14 04:33:03;;;;;;;1.67;1.00;;;;;;;24.76;36.61;98774.75;4984976;28;20022;-45
2023/12/14 04:35:28;;;;;;;2.20;1.00;;;;;;;24.72;36.48;98779.78;4985694;28;20131;-43
2023/12/14 04:37:54;;;;;;;2.47;1.08;;;;;;;24.70;36.50;98780.31;4992570;28;20194;-43
2023/12/14 04:40:19;;;;;;;3.38;1.20;;;;;;;24.70;36.44;98787.84;4988335;28;20057;-43
2023/12/14 04:42:45;;;;;;;3.13;1.13;;;;;;;24.69;36.36;98794.63;4988393;28;20039;-46
2023/12/14 04:45:10;;;;;;;3.88;1.27;;;;;;;24.65;36.42;98794.88;4986321;28;20038;-47
2023/12/14 04:47:36;;;;;;;2.33;1.00;;;;;;;24.69;36.32;98797.38;4988383;28;20018;-43
2023/12/14 04:50:02;;;;;;;3.22;1.00;;;;;;;24.66;36.47;98801.16;4992646;28;20061;-45
2023/12/14 04:52:27;;;;;;;2.35;1.10;;;;;;;24.66;36.55;98809.44;4991584;28;20041;-44
2023/12/14 04:54:52;;;;;;;2.15;1.00;;;;;;;24.65;36.58;98808.69;4993205;28;20413;-47
2023/12/14 04:57:18;;;;;;;2.88;1.20;;;;;;;24.69;36.52;98816.69;4985165;28;20035;-42
2023/12/14 04:59:43;;;;;;;2.60;1.15;;;;;;;24.70;36.53;98812.66;4988955;28;20394;-44
2023/12/14 05:02:09;;;;;;;2.00;0.98;;;;;;;24.69;36.60;98820.19;4993246;28;20400;-42
2023/12/14 05:04:34;;;;;;;2.83;1.10;;;;;;;24.65;36.58;98818.97;4986037;28;20027;-43
2023/12/14 05:06:59;;;;;;;2.92;1.20;;;;;;;24.66;36.72;98837.78;4992186;28;20022;-45
2023/12/14 05:09:25;;;;;;;2.67;1.15;;;;;;;24.67;36.90;98842.03;4984950;28;20038;-43
2023/12/14 05:11:50;;;;;;;2.88;1.13;;;;;;;24.68;36.77;98851.06;4985477;28;20032;-43
2023/12/14 05:14:15;;;;;;;3.10;1.20;;;;;;;24.68;36.91;98853.81;4989250;28;20477;-45
2023/12/14 05:16:41;;;;;;;4.03;1.10;;;;;;;24.71;36.86;98856.31;4989700;28;20041;-42
2023/12/14 05:19:06;;;;;;;2.88;1.10;;;;;;;24.71;36.76;98858.31;4990882;28;20049;-44
2023/12/14 05:21:31;;;;;;;3.28;1.20;;;;;;;24.73;36.84;98866.84;4986480;28;20026;-43
2023/12/14 05:23:57;;;;;;;2.70;1.08;;;;;;;24.71;36.82;98874.88;4984171;28;20029;-47
2023/12/14 05:26:22;;;;;;;4.32;1.10;;;;;;;24.72;36.87;98876.38;4991701;28;20375;-45
2023/12/14 05:28:47;;;;;;;3.05;1.00;;;;;;;24.75;36.64;98875.38;4989313;28;20504;-45
2023/12/14 05:31:13;;;;;;;3.47;1.30;;;;;;;24.75;36.78;98878.13;4990073;28;20026;-45
2023/12/14 05:33:39;;;;;;;2.38;1.08;;;;;;;24.77;36.68;98878.38;4987113;28;20028;-46
2023/12/14 05:36:08;;;;;;;2.17;1.00;;;;;;;24.79;36.72;98883.34;4986711;28;20598;-43
2023/12/14 05:38:34;;;;;;;3.85;1.08;;;;;;;24.78;36.73;98890.88;4989027;28;20025;-42
2023/12/14 05:40:59;;;;;;;2.50;1.10;;;;;;;24.87;36.67;98898.13;4990982;28;20030;-45
2023/12/14 05:43:24;;;;;;;3.88;1.10;;;;;;;24.87;36.48;98898.88;4993633;28;20038;-45
2023/12/14 05:45:50;;;;;;;2.90;1.20;;;;;;;24.91;36.28;98910.41;4989866;28;20036;-44
2023/12/14 05:48:15;;;;;;;3.05;1.15;;;;;;;24.92;36.39;98917.41;4985029;28;20393;-44
2023/12/14 05:50:41;;;;;;;2.15;1.10;;;;;;;24.93;36.74;98912.66;4987249;28;20034;-47
2023/12/14 05:53:06;;;;;;;5.18;1.27;;;;;;;24.86;37.00;98921.47;4987305;28;20025;-45
2023/12/14 05:55:31;;;;;;;6.18;1.30;;;;;;;24.95;36.90;98919.19;5013306;28;20034;-44
2023/12/14 05:57:57;;;;;;;3.45;1.30;;;;;;;24.97;37.10;98930.47;4989075;28;20030;-43
2023/12/14 06:00:22;;;;;;;5.03;1.38;;;;;;;24.96;37.01;98928.97;4984569;28;20030;-49
2023/12/14 06:02:47;;;;;;;5.60;1.17;;;;;;;24.98;37.10;98937.47;4987698;28;20044;-47
2023/12/14 06:05:13;;;;;;;5.00;1.40;;;;;;;24.94;37.34;98937.03;4987581;28;20034;-42
2023/12/14 06:07:38;;;;;;;3.42;1.27;;;;;;;24.92;37.39;98947.03;4983587;28;20042;-46
2023/12/14 06:10:04;;;;;;;4.38;1.30;;;;;;;24.92;37.50;98945.03;4987055;28;20026;-50
2023/12/14 06:12:29;;;;;;;3.78;1.20;;;;;;;24.87;37.46;98947.81;4982139;28;20391;-45
2023/12/14 06:14:55;;;;;;;4.57;1.30;;;;;;;24.88;37.33;98947.31;4992903;28;20030;-47
2023/12/14 06:17:20;;;;;;;3.35;1.15;;;;;;;24.82;37.13;98949.34;4993332;28;20030;-48
2023/12/14 06:19:45;;;;;;;3.55;1.38;;;;;;;24.80;36.93;98971.16;4988710;28;20038;-44
2023/12/14 06:22:11;;;;;;;2.67;1.30;;;;;;;24.82;37.03;98965.88;4986551;28;20032;-46
2023/12/14 06:24:36;;;;;;;4.03;1.20;;;;;;;24.80;37.04;98973.94;4996030;28;20290;-47
2023/12/14 06:27:02;;;;;;;5.22;1.40;;;;;;;24.82;36.77;98987.22;4988373;28;20030;-47
2023/12/14 06:29:27;;;;;;;5.07;1.52;;;;;;;24.79;37.04;98991.75;4988370;28;20473;-48
2023/12/14 06:31:52;;;;;;;5.38;1.58;;;;;;;24.80;36.85;98998.75;4990245;28;20432;-48
2023/12/14 06:34:18;;;;;;;4.38;1.30;;;;;;;24.83;36.95;99005.28;4982847;28;20034;-48
2023/12/14 06:36:44;;;;;;;5.30;1.40;;;;;;;24.82;36.67;99007.28;4978202;28;20045;-46
2023/12/14 06:39:10;;;;;;;3.97;1.50;;;;;;;24.81;36.59;99005.78;4983751;28;20014;-44
2023/12/14 06:41:35;;;;;;;4.03;1.40;;;;;;;24.83;36.71;99017.06;4993866;28;20030;-46
2023/12/14 06:44:01;;;;;;;3.45;1.50;;;;;;;24.88;36.57;99018.31;4991129;28;20035;-50
2023/12/14 06:46:26;;;;;;;2.97;1.33;;;;;;;24.87;36.68;99025.84;4985844;28;20054;-48
2023/12/14 06:48:52;;;;;;;3.72;1.40;;;;;;;24.83;36.27;99025.34;4982596;28;20152;-47
2023/12/14 06:51:17;;;;;;;3.20;1.25;;;;;;;24.87;36.36;99025.84;4985829;28;20967;-48
2023/12/14 06:53:43;;;;;;;3.97;1.40;;;;;;;24.86;36.36;99035.38;4990522;28;20026;-43
2023/12/14 06:56:12;;;;;;;6.53;1.50;;;;;;;24.86;36.45;99031.88;4992398;28;20477;-47
2023/12/14 06:58:38;;;;;;;3.40;1.40;;;;;;;24.85;36.26;99038.66;4982889;28;20478;-43
2023/12/14 07:01:04;;;;;;;2.47;1.20;;;;;;;24.86;36.51;99051.94;4982162;28;20022;-49
2023/12/14 07:03:30;;;;;;;2.92;1.40;;;;;;;24.84;36.36;99054.47;4981814;28;20026;-50
2023/12/14 07:05:55;;;;;;;3.13;1.33;;;;;;;24.88;36.09;99060.47;4988866;28;20026;-46
2023/12/14 07:08:21;;;;;;;4.68;1.70;;;;;;;24.86;36.23;99065.75;4995001;28;20041;-45
2023/12/14 07:10:46;;;;;;;3.15;1.40;;;;;;;24.89;36.19;99070.25;4990570;28;20034;-45
2023/12/14 07:13:11;;;;;;;3.63;1.50;;;;;;;24.91;35.95;99067.75;4988199;28;20042;-48
2023/12/14 07:15:37;;;;;;;3.85;1.40;;;;;;;24.98;36.19;99075.53;4992057;28;20028;-46
2023/12/14 07:18:02;;;;;;;4.25;1.70;;;;;;;24.99;36.30;99085.31;4988231;28;20080;-46
2023/12/14 07:20:27;;;;;;;2.60;1.33;;;;;;;24.98;36.09;99075.53;4991947;28;20081;-44
2023/12/14 07:22:53;;;;;;;3.10;1.45;;;;;;;25.01;35.99;99091.06;4994977;28;20450;-46
2023/12/14 07:25:18;;;;;;;4.63;1.55;;;;;;;25.03;35.97;99099.59;4992301;28;20022;-49
2023/12/14 07:27:43;;;;;;;3.85;1.63;;;;;;;24.97;35.99;99104.41;4985149;28;20041;-46
2023/12/14 07:30:09;;;;;;;3.65;1.73;;;;;;;24.85;35.51;99102.13;4991088;28;20030;-45
2023/12/14 07:32:35;;;;;;;4.60;1.85;;;;;;;24.83;35.47;99102.66;4991272;28;20102;-48
2023/12/14 07:35:00;;;;;;;4.57;1.80;;;;;;;24.85;35.75;99111.19;4995366;28;20034;-45
2023/12/14 07:37:26;;;;;;;3.63;1.67;;;;;;;24.88;35.75;99117.69;4987057;28;20060;-49
2023/12/14 07:39:51;;;;;;;4.75;1.90;;;;;;;24.90;35.74;99131.75;4989792;28;20034;-51
2023/12/14 07:42:19;;;;;;;4.30;1.73;;;;;;;24.85;35.88;99130.50;4992269;28;20507;-49
2023/12/14 07:44:45;;;;;;;4.75;1.80;;;;;;;24.82;35.80;99125.97;4994784;28;20032;-46
2023/12/14 07:47:10;;;;;;;4.10;1.98;;;;;;;24.80;35.58;99131.25;4992268;28;20030;-46
2023/12/14 07:49:35;;;;;;;5.97;1.70;;;;;;;24.87;35.67;99135.50;4988229;28;20026;-47
2023/12/14 07:52:01;;;;;;;5.72;1.80;;;;;;;24.83;35.64;99137.78;4984883;28;20912;-46
2023/12/14 07:54:26;;;;;;;4.43;1.90;;;;;;;24.81;35.77;99141.03;4994838;28;20022;-48
2023/12/14 07:56:52;;;;;;;4.32;2.03;;;;;;;24.82;35.58;99139.78;4992392;28;20030;-45
2023/12/14 07:59:17;;;;;;;6.53;2.13;;;;;;;24.89;35.73;99150.31;4991041;28;20030;-47
2023/12/14 08:01:42;;;;;;;10.00;2.42;;;;;;;24.97;35.54;99158.88;4987354;28;20023;-45
2023/12/14 08:04:10;;;;;;;12.30;2.30;;;;;;;24.96;35.58;99165.66;4987270;28;20033;-45
2023/12/14 08:06:35;;;;;;;7.50;2.00;;;;;;;24.94;35.59;99168.91;4991084;28;20022;-45
2023/12/14 08:09:00;;;;;;;10.82;2.20;;;;;;;24.92;35.67;99174.16;4996207;28;20375;-46
2023/12/14 08:11:27;;;;;;;5.75;2.05;;;;;;;24.92;35.66;99179.69;4991290;28;20018;-46
2023/12/14 08:13:52;;;;;;;5.28;1.85;;;;;;;24.93;35.44;99183.94;4989271;28;20109;-46
2023/12/14 08:16:18;;;;;;;4.90;1.95;;;;;;;24.95;35.21;99189.75;4985857;28;20088;-46
2023/12/14 08:18:45;;;;;;;4.32;1.73;;;;;;;24.94;35.46;99199.28;4988489;28;20029;-46
2023/12/14 08:21:11;;;;;;;4.57;1.70;;;;;;;24.94;35.26;99198.50;4993112;28;20109;-47
2023/12/14 08:23:36;;;;;;;3.90;1.80;;;;;;;24.94;35.37;99201.28;4991192;28;20087;-46
2023/12/14 08:26:02;;;;;;;4.43;1.70;;;;;;;24.91;35.37;99207.78;4989965;28;20022;-45
2023/12/14 08:28:27;;;;;;;3.70;1.75;;;;;;;24.92;35.21;99203.78;4988511;28;20462;-47
2023/12/14 08:30:53;;;;;;;3.88;1.73;;;;;;;24.93;35.35;99217.09;4989550;28;20029;-47
2023/12/14 08:33:18;;;;;;;5.20;2.00;;;;;;;24.93;35.29;99221.84;4989922;28;20026;-48
2023/12/14 08:35:44;;;;;;;3.92;1.92;;;;;;;24.91;35.47;99225.09;4985146;28;20022;-47
2023/12/14 08:38:10;;;;;;;4.55;1.80;;;;;;;24.89;35.30;99233.13;4988795;28;20022;-45
2023/12/14 08:40:36;;;;;;;4.78;1.90;;;;;;;24.77;35.65;99234.41;4986071;28;20459;-47
2023/12/14 08:43:02;;;;;;;16.58;2.40;;;;;;;24.82;35.96;99243.91;4991841;28;20126;-44
2023/12/14 08:45:28;;;;;;;11.68;2.20;;;;;;;24.87;36.05;99252.22;4992521;28;20026;-43
2023/12/14 08:47:53;;;;;;;12.15;2.65;;;;;;;24.84;35.79;99257.97;4985100;28;20028;-44
2023/12/14 08:50:18;;;;;;;10.15;2.13;;;;;;;24.86;35.79;99267.25;4987529;28;20080;-43
2023/12/14 08:52:44;;;;;;;8.63;2.17;;;;;;;24.83;35.96;99262.75;4987237;28;20023;-43
2023/12/14 08:55:09;;;;;;;6.18;2.28;;;;;;;24.84;35.93;99269.78;4986703;28;20057;-43
2023/12/14 08:57:35;;;;;;;6.20;2.20;;;;;;;24.88;36.12;99275.03;4993371;28;20036;-46
2023/12/14 09:00:01;;;;;;;4.15;1.92;;;;;;;24.89;36.19;99277.31;4991568;28;20034;-47
2023/12/14 09:02:26;;;;;;;4.30;2.10;;;;;;;24.89;36.24;99285.59;4988441;28;20598;-47
2023/12/14 09:04:51;;;;;;;5.20;2.10;;;;;;;24.93;36.35;99293.63;4981772;28;20039;-46
2023/12/14 09:07:17;;;;;;;5.55;2.25;;;;;;;24.93;36.45;99299.91;4985597;28;20045;-45
2023/12/14 09:09:43;;;;;;;5.63;2.00;;;;;;;24.95;36.17;99294.66;4990564;28;20034;-46
2023/12/14 09:12:09;;;;;;;4.10;1.77;;;;;;;24.99;35.93;99303.44;4990159;28;20026;-48
2023/12/14 09:14:34;;;;;;;5.50;2.15;;;;;;;25.00;36.21;99304.94;4986437;28;20076;-49
2023/12/14 09:16:59;;;;;;;4.90;1.90;;;;;;;25.01;36.12;99311.97;4985457;28;20496;-46
2023/12/14 09:19:25;;;;;;;7.28;1.90;;;;;;;25.02;36.26;99313.47;4985857;28;20018;-45
2023/12/14 09:21:50;;;;;;;5.95;2.17;;;;;;;25.02;36.45;99324.53;4988136;28;20037;-47
2023/12/14 09:24:15;;;;;;;4.47;2.13;;;;;;;25.00;36.43;99331.78;4991478;28;20100;-48
2023/12/14 09:26:41;;;;;;;4.75;2.17;;;;;;;24.94;36.30;99334.56;4988438;28;20038;-44
2023/12/14 09:29:06;;;;;;;5.03;2.60;;;;;;;24.81;35.74;99334.25;4984980;28;20557;-45
2023/12/14 09:31:32;;;;;;;5.07;2.40;;;;;;;24.77;35.92;99330.25;4983910;28;20548;-48
2023/12/14 09:33:57;;;;;;;4.80;2.30;;;;;;;24.79;35.86;99344.28;4987052;28;20028;-47
2023/12/14 09:36:23;;;;;;;5.43;2.50;;;;;;;24.87;35.50;99348.81;4988511;28;20018;-49
2023/12/14 09:38:49;;;;;;;5.60;2.42;;;;;;;24.79;35.22;99360.84;4991091;28;20485;-49
2023/12/14 09:41:14;;;;;;;4.68;2.40;;;;;;;24.74;35.14;99359.59;4983480;28;20045;-46
2023/12/14 09:43:40;;;;;;;5.10;2.33;;;;;;;24.77;35.16;99366.13;4981089;28;20383;-49
2023/12/14 09:46:05;;;;;;;6.40;2.63;;;;;;;24.85;35.03;99365.13;4985678;28;20026;-48
2023/12/14 09:48:31;;;;;;;6.07;2.33;;;;;;;24.82;35.37;99373.66;4987282;28;20026;-52
2023/12/14 09:50:57;;;;;;;7.13;2.30;;;;;;;24.82;35.62;99365.38;4995166;28;20041;-52
2023/12/14 09:53:22;;;;;;;6.90;2.63;;;;;;;24.83;35.80;99377.94;4987350;28;20076;-45
2023/12/14 09:55:48;;;;;;;4.63;2.10;;;;;;;24.79;36.03;99388.44;4985696;28;20033;-47
2023/12/14 09:58:13;;;;;;;5.53;2.22;;;;;;;24.78;36.07;99392.50;4987033;28;20355;-50
2023/12/14 10:00:40;;;;;;;4.38;2.30;;;;;;;24.77;36.09;99391.75;4985022;28;20049;-52
2023/12/14 10:03:28;;;;;;;4.88;2.30;;;;;;;24.79;36.11;99391.97;4990278;28;20037;-51
2023/12/14 10:05:54;;;;;;;5.88;2.50;;;;;;;24.88;35.94;99402.03;4984728;28;20363;-47
2023/12/14 10:08:20;;;;;;;4.35;2.00;;;;;;;24.89;36.19;99407.06;4984120;28;20037;-48
2023/12/14 10:10:46;;;;;;;5.43;2.30;;;;;;;24.95;35.96;99412.63;4992001;28;20026;-44
2023/12/14 10:13:12;;;;;;;5.03;2.20;;;;;;;24.90;35.93;99410.56;4991125;28;20121;-46
2023/12/14 10:15:44;;;;;;;5.30;2.50;;;;;;;24.92;35.91;99425.41;4991986;28;20405;-46
2023/12/14 10:18:09;;;;;;;8.25;2.40;;;;;;;24.94;36.39;99419.38;4988873;28;20908;-49
2023/12/14 10:20:36;;;;;;;5.35;2.40;;;;;;;24.96;35.82;99419.66;4990603;28;20030;-48
2023/12/14 10:23:02;;;;;;;5.35;2.25;;;;;;;25.02;35.76;99418.41;4991068;28;20058;-49
2023/12/14 10:25:27;;;;;;;5.43;2.30;;;;;;;24.95;36.03;99427.19;4978761;28;20130;-46
2023/12/14 10:27:53;;;;;;;5.38;2.30;;;;;;;24.94;35.95;99435.94;4987573;28;20363;-45
2023/12/14 10:30:19;;;;;;;6.65;2.60;;;;;;;24.99;35.64;99435.97;4991078;28;20031;-43
2023/12/14 10:32:46;;;;;;;6.20;2.40;;;;;;;25.01;35.87;99430.69;4987539;28;20026;-46
2023/12/14 10:35:12;;;;;;;4.75;2.40;;;;;;;24.98;35.80;99428.94;5011640;28;20026;-47
2023/12/14 10:37:38;;;;;;;4.68;1.83;;;;;;;25.04;35.75;99435.22;4987980;28;20041;-47
2023/12/14 10:40:10;;;;;;;5.53;2.30;;;;;;;25.00;35.82;99443.00;4989174;28;20042;-47
2023/12/14 10:42:35;;;;;;;4.40;2.30;;;;;;;25.05;35.78;99438.75;5003010;28;20033;-46
2023/12/14 10:45:01;;;;;;;4.38;2.10;;;;;;;25.04;35.40;99446.28;4985933;28;20116;-47
2023/12/14 10:47:26;;;;;;;10.48;2.78;;;;;;;25.04;35.65;99437.25;4993696;28;20026;-47
2023/12/14 10:49:52;;;;;;;7.13;2.20;;;;;;;25.04;35.57;99449.03;4990817;28;20026;-46
2023/12/14 10:52:18;;;;;;;6.47;2.22;;;;;;;25.02;35.61;99450.78;4974600;28;20559;-50
2023/12/14 10:54:43;;;;;;;4.30;2.00;;;;;;;25.05;35.57;99456.06;4990972;28;20100;-49
2023/12/14 10:57:09;;;;;;;4.32;2.10;;;;;;;25.03;35.71;99458.56;4972095;28;20031;-53
2023/12/14 10:59:34;;;;;;;5.53;2.22;;;;;;;25.03;35.77;99464.09;4996788;28;20080;-46
2023/12/14 11:02:00;;;;;;;5.00;2.30;;;;;;;25.03;35.78;99464.09;4985985;28;20037;-46
2023/12/14 11:04:28;;;;;;;5.35;2.33;;;;;;;25.04;35.81;99473.88;4973545;28;20030;-49
2023/12/14 11:06:54;;;;;;;5.55;2.22;;;;;;;25.05;35.76;99475.41;4989266;28;20030;-46
2023/12/14 11:09:21;;;;;;;5.22;2.45;;;;;;;25.04;35.93;99476.66;4985923;28;20488;-51
2023/12/14 11:11:53;;;;;;;4.83;2.07;;;;;;;25.05;35.95;99488.44;4975147;28;20038;-50
2023/12/14 11:14:18;;;;;;;4.28;2.05;;;;;;;25.04;36.06;99484.94;4988600;28;20493;-49
2023/12/14 11:16:46;;;;;;;4.47;2.30;;;;;;;25.05;36.15;99499.50;4640822;28;10000583;-52
2023/12/14 11:19:24;;;;;;;3.88;2.10;;;;;;;25.04;36.23;99498.00;4988390;28;20041;-49
2023/12/14 11:22:07;;;;;;;4.82;2.05;;;;;;;25.03;36.16;99497.22;4981976;28;20739;-48
2023/12/14 11:24:34;;;;;;;4.97;2.10;;;;;;;25.04;36.13;99493.22;4986556;28;20033;-52
2023/12/14 11:27:06;;;;;;;5.10;2.00;;;;;;;25.02;36.46;99492.97;4989443;28;20024;-47